createdAt,value
2022-08-07T00:00:43.456Z,24.47
2022-08-07T00:03:22.989Z,24.21
2022-08-07T00:06:00.277Z,23.97
2022-08-07T00:08:37.004Z,23.76
2022-08-07T00:11:19.907Z,23.56
2022-08-07T00:14:20.571Z,24.15
2022-08-07T00:17:13.659Z,24.43
2022-08-07T00:20:49.769Z,24.37
2022-08-07T00:24:01.123Z,23.97
2022-08-07T00:27:06.314Z,23.68
2022-08-07T00:30:28.403Z,23.37
2022-08-07T00:33:35.687Z,23.23
2022-08-07T00:36:33.878Z,23.81
2022-08-07T00:39:16.536Z,23.99
2022-08-07T00:42:05.206Z,23.77
2022-08-07T00:45:16.278Z,23.46
2022-08-07T00:48:11.311Z,23.19
2022-08-07T00:51:11.997Z,22.95
2022-08-07T00:53:56.760Z,22.74
2022-08-07T00:56:49.836Z,23.27
2022-08-07T00:59:32.410Z,23.56
2022-08-07T01:02:30.034Z,23.44
2022-08-07T01:05:56.826Z,23.16
2022-08-07T01:08:46.535Z,22.86
2022-08-07T01:12:23.515Z,22.56
2022-08-07T01:15:04.222Z,22.35
2022-08-07T01:17:55.786Z,23.03
2022-08-07T01:20:57.300Z,23.34
2022-08-07T01:24:03.202Z,23.17
2022-08-07T01:27:19.608Z,22.89
2022-08-07T01:30:32.026Z,22.54
2022-08-07T01:33:24.916Z,22.26
2022-08-07T01:36:52.620Z,22.11
2022-08-07T01:39:46.849Z,22.71
2022-08-07T01:42:57.540Z,22.82
2022-08-07T01:45:47.265Z,22.56
2022-08-07T01:48:34.087Z,22.29
2022-08-07T01:52:02.231Z,22.04
2022-08-07T01:54:36.268Z,21.79
2022-08-07T01:57:28.755Z,21.52
2022-08-07T02:00:49.353Z,21.34
2022-08-07T02:03:50.346Z,22.07
2022-08-07T02:06:31.397Z,22.27
2022-08-07T02:09:52.796Z,22.03
2022-08-07T02:12:57.797Z,21.67
2022-08-07T02:16:16.057Z,21.25
2022-08-07T02:20:05.511Z,20.95
2022-08-07T02:23:01.638Z,20.81
2022-08-07T02:26:32.059Z,21.52
2022-08-07T02:29:22.472Z,21.50
2022-08-07T02:32:07.315Z,21.25
2022-08-07T02:34:56.052Z,20.94
2022-08-07T02:37:45.200Z,20.62
2022-08-07T02:40:41.945Z,20.37
2022-08-07T02:44:13.543Z,20.14
2022-08-07T02:47:19.524Z,20.02
2022-08-07T02:50:15.612Z,20.72
2022-08-07T02:53:10.728Z,20.95
2022-08-07T02:56:21.811Z,20.77
2022-08-07T02:59:13.723Z,20.51
2022-08-07T03:02:19.698Z,20.28
2022-08-07T03:05:22.997Z,19.96
2022-08-07T03:08:10.364Z,19.74
2022-08-07T03:11:16.376Z,19.63
2022-08-07T03:14:06.086Z,20.37
2022-08-07T03:17:05.699Z,20.78
2022-08-07T03:20:02.530Z,20.70
2022-08-07T03:23:20.257Z,20.42
2022-08-07T03:26:59.222Z,20.02
2022-08-07T03:30:13.074Z,19.74
2022-08-07T03:33:44.592Z,19.59
2022-08-07T03:36:38.572Z,19.62
2022-08-07T03:39:59.697Z,20.41
2022-08-07T03:42:34.344Z,20.75
2022-08-07T03:45:31.621Z,20.62
2022-08-07T03:49:07.439Z,20.33
2022-08-07T03:52:22.804Z,20.05
2022-08-07T03:55:52.852Z,19.78
2022-08-07T03:59:10.115Z,19.59
2022-08-07T04:02:58.148Z,19.60
2022-08-07T04:06:36.239Z,20.50
2022-08-07T04:09:58.042Z,20.69
2022-08-07T04:14:10.680Z,20.43
2022-08-07T04:17:20.874Z,20.05
2022-08-07T04:20:39.682Z,19.84
2022-08-07T04:24:03.551Z,19.60
2022-08-07T04:26:54.334Z,19.45
2022-08-07T04:30:35.992Z,19.33
2022-08-07T04:34:05.085Z,19.48
2022-08-07T04:37:00.915Z,20.39
2022-08-07T04:39:47.869Z,20.53
2022-08-07T04:42:28.728Z,20.38
2022-08-07T04:46:02.048Z,20.05
2022-08-07T04:49:38.446Z,19.68
2022-08-07T04:53:05.623Z,19.33
2022-08-07T04:58:14.032Z,19.02
2022-08-07T05:00:10.947Z,18.91
2022-08-07T05:03:31.089Z,19.78
2022-08-07T05:06:23.612Z,19.86
2022-08-07T05:10:06.099Z,19.57
2022-08-07T05:14:55.701Z,19.22
2022-08-07T05:16:58.212Z,18.88
2022-08-07T05:19:50.630Z,18.73
2022-08-07T05:22:32.099Z,19.41
2022-08-07T05:25:26.228Z,19.73
2022-08-07T05:28:23.251Z,19.55
2022-08-07T05:30:57.887Z,19.26
2022-08-07T05:33:37.086Z,18.96
2022-08-07T05:36:12.358Z,18.68
2022-08-07T05:39:01.329Z,18.45
2022-08-07T05:42:01.618Z,19.00
2022-08-07T05:44:52.752Z,19.42
2022-08-07T05:48:01.746Z,19.30
2022-08-07T05:50:51.428Z,18.96
2022-08-07T05:54:13.548Z,18.68
2022-08-07T05:56:30.205Z,18.46
2022-08-07T05:59:02.939Z,19.01
2022-08-07T06:01:34.742Z,19.40
2022-08-07T06:04:05.132Z,19.37
2022-08-07T06:06:46.259Z,19.16
2022-08-07T06:09:17.144Z,18.92
2022-08-07T06:11:51.075Z,18.70
2022-08-07T06:14:21.343Z,18.53
2022-08-07T06:17:10.223Z,19.13
2022-08-07T06:19:52.369Z,19.64
2022-08-07T06:22:36.909Z,19.60
2022-08-07T06:25:21.860Z,19.31
2022-08-07T06:28:01.558Z,19.03
2022-08-07T06:30:36.021Z,18.78
2022-08-07T06:33:18.444Z,18.59
2022-08-07T06:36:12.338Z,19.17
2022-08-07T06:38:59.515Z,19.73
2022-08-07T06:42:01.785Z,19.67
2022-08-07T06:45:02.973Z,19.32
2022-08-07T06:47:47.850Z,19.04
2022-08-07T06:50:19.027Z,18.77
2022-08-07T06:52:52.770Z,18.59
2022-08-07T06:55:53.584Z,19.11
2022-08-07T06:58:17.577Z,19.68
2022-08-07T07:01:02.991Z,19.67
2022-08-07T07:03:47.507Z,19.46
2022-08-07T07:06:26.130Z,19.20
2022-08-07T07:09:21.707Z,19.00
2022-08-07T07:12:19.727Z,18.86
2022-08-07T07:14:55.912Z,19.63
2022-08-07T07:17:39.146Z,19.98
2022-08-07T07:20:18.523Z,19.87
2022-08-07T07:24:08.259Z,19.61
2022-08-07T07:26:33.964Z,19.35
2022-08-07T07:28:42.156Z,19.11
2022-08-07T07:31:27.331Z,18.94
2022-08-07T07:34:06.857Z,19.62
2022-08-07T07:36:40.488Z,20.09
2022-08-07T07:39:08.627Z,20.03
2022-08-07T07:42:02.015Z,19.81
2022-08-07T07:44:26.028Z,19.53
2022-08-07T07:47:02.194Z,19.31
2022-08-07T07:50:34.518Z,19.04
2022-08-07T07:52:29.044Z,19.63
2022-08-07T07:54:57.497Z,20.06
2022-08-07T07:57:51.901Z,20.02
2022-08-07T08:00:29.238Z,19.78
2022-08-07T08:03:16.798Z,19.52
2022-08-07T08:05:59.600Z,19.26
2022-08-07T08:08:35.262Z,19.10
2022-08-07T08:11:08.112Z,19.60
2022-08-07T08:13:53.802Z,20.11
2022-08-07T08:16:26.843Z,20.15
2022-08-07T08:18:58.807Z,19.90
2022-08-07T08:21:55.914Z,19.66
2022-08-07T08:24:57.013Z,19.40
2022-08-07T08:27:33.798Z,19.22
2022-08-07T08:30:09.616Z,19.77
2022-08-07T08:32:48.427Z,20.17
2022-08-07T08:35:19.040Z,20.09
2022-08-07T08:38:01.706Z,19.84
2022-08-07T08:40:34.155Z,19.51
2022-08-07T08:43:09.870Z,19.27
2022-08-07T08:46:00.528Z,19.06
2022-08-07T08:48:40.418Z,19.69
2022-08-07T08:52:12.426Z,20.08
2022-08-07T08:54:26.820Z,19.88
2022-08-07T08:56:54.930Z,19.62
2022-08-07T08:59:41.780Z,19.36
2022-08-07T09:02:41.761Z,19.09
2022-08-07T09:05:38.047Z,18.94
2022-08-07T09:08:28.602Z,19.69
2022-08-07T09:11:05.274Z,20.07
2022-08-07T09:14:07.367Z,19.93
2022-08-07T09:17:05.359Z,19.67
2022-08-07T09:19:52.635Z,19.36
2022-08-07T09:24:33.578Z,19.11
2022-08-07T09:25:43.436Z,19.03
2022-08-07T09:30:01.292Z,19.80
2022-08-07T09:31:50.602Z,20.19
2022-08-07T09:34:34.552Z,20.04
2022-08-07T09:42:09.400Z,19.32
2022-08-07T09:50:03.007Z,20.09
2022-08-07T09:52:33.527Z,20.18
2022-08-07T09:55:29.981Z,19.91
2022-08-07T09:58:48.669Z,19.52
2022-08-07T10:01:52.240Z,19.21
2022-08-07T10:05:00.251Z,19.03
2022-08-07T10:07:53.330Z,19.79
2022-08-07T10:11:16.325Z,20.11
2022-08-07T10:14:01.451Z,19.96
2022-08-07T10:16:39.073Z,19.67
2022-08-07T10:19:30.141Z,19.45
2022-08-07T10:22:16.890Z,19.24
2022-08-07T10:24:50.655Z,19.09
2022-08-07T10:28:02.585Z,19.72
2022-08-07T10:30:51.594Z,20.29
2022-08-07T10:34:14.615Z,20.21
2022-08-07T10:36:36.067Z,19.93
2022-08-07T10:39:41.583Z,19.66
2022-08-07T10:42:36.581Z,19.39
2022-08-07T10:45:57.504Z,19.25
2022-08-07T10:48:35.445Z,20.16
2022-08-07T10:51:16.654Z,20.60
2022-08-07T10:54:36.664Z,20.51
2022-08-07T10:57:15.534Z,20.25
2022-08-07T11:00:36.532Z,20.01
2022-08-07T11:03:11.321Z,19.75
2022-08-07T11:06:05.725Z,19.64
2022-08-07T11:09:03.298Z,20.42
2022-08-07T11:11:51.717Z,20.93
2022-08-07T11:14:45.310Z,20.88
2022-08-07T11:17:43.416Z,20.62
2022-08-07T11:20:22.527Z,20.34
2022-08-07T11:23:20.732Z,20.12
2022-08-07T11:26:11.252Z,19.96
2022-08-07T11:28:57.904Z,20.64
2022-08-07T11:31:27.743Z,21.01
2022-08-07T11:34:00.261Z,20.89
2022-08-07T11:36:40.058Z,20.65
2022-08-07T11:39:26.129Z,20.41
2022-08-07T11:42:19.295Z,20.12
2022-08-07T11:45:20.345Z,19.93
2022-08-07T11:47:59.519Z,20.62
2022-08-07T11:51:00.272Z,21.03
2022-08-07T11:54:00.769Z,20.93
2022-08-07T11:56:43.781Z,20.62
2022-08-07T12:00:11.876Z,20.39
2022-08-07T12:02:52.449Z,20.23
2022-08-07T12:05:28.921Z,20.94
2022-08-07T12:08:34.464Z,21.29
2022-08-07T12:11:21.009Z,21.23
2022-08-07T12:14:11.245Z,21.09
2022-08-07T12:16:48.066Z,20.93
2022-08-07T12:19:56.787Z,20.78
2022-08-07T12:22:58.852Z,20.69
2022-08-07T12:26:05.915Z,21.49
2022-08-07T12:29:13.672Z,21.78
2022-08-07T12:32:04.228Z,21.64
2022-08-07T12:34:34.746Z,21.39
2022-08-07T12:37:08.775Z,21.17
2022-08-07T12:39:50.886Z,20.98
2022-08-07T12:42:28.070Z,20.83
2022-08-07T12:45:05.653Z,21.34
2022-08-07T12:47:49.357Z,21.90
2022-08-07T12:50:39.673Z,21.96
2022-08-07T12:53:19.063Z,21.78
2022-08-07T12:56:10.576Z,21.57
2022-08-07T12:58:43.986Z,21.39
2022-08-07T13:01:29.315Z,21.28
2022-08-07T13:04:31.599Z,21.22
2022-08-07T13:07:02.032Z,22.02
2022-08-07T13:10:28.312Z,22.64
2022-08-07T13:13:11.109Z,22.80
2022-08-07T13:16:22.467Z,22.66
2022-08-07T13:18:56.022Z,22.48
2022-08-07T13:21:59.049Z,22.29
2022-08-07T13:24:52.115Z,22.13
2022-08-07T13:28:05.570Z,21.99
2022-08-07T13:30:19.368Z,21.81
2022-08-07T13:33:06.308Z,21.66
2022-08-07T13:36:05.524Z,21.55
2022-08-07T13:38:59.002Z,21.44
2022-08-07T13:41:48.847Z,21.34
2022-08-07T13:44:26.052Z,22.00
2022-08-07T13:46:59.465Z,22.37
2022-08-07T13:50:32.911Z,22.33
2022-08-07T13:52:33.818Z,22.10
2022-08-07T13:55:10.747Z,21.90
2022-08-07T13:57:39.894Z,21.74
2022-08-07T14:00:50.423Z,21.52
2022-08-07T14:03:29.981Z,21.36
2022-08-07T14:06:12.129Z,21.26
2022-08-07T14:08:43.231Z,21.16
2022-08-07T14:11:18.960Z,21.11
2022-08-07T14:13:55.308Z,21.69
2022-08-07T14:16:31.041Z,22.32
2022-08-07T14:18:58.784Z,22.43
2022-08-07T14:22:03.410Z,22.33
2022-08-07T14:24:42.560Z,22.11
2022-08-07T14:28:09.773Z,21.92
2022-08-07T14:32:55.832Z,21.62
2022-08-07T14:35:44.852Z,21.49
2022-08-07T14:38:30.927Z,21.32
2022-08-07T14:41:04.420Z,21.22
2022-08-07T14:43:58.939Z,21.18
2022-08-07T14:46:30.698Z,21.20
2022-08-07T14:48:59.648Z,21.90
2022-08-07T14:52:03.882Z,22.52
2022-08-07T14:54:42.231Z,22.53
2022-08-07T14:57:18.683Z,22.33
2022-08-07T15:02:57.010Z,21.90
2022-08-07T15:05:24.715Z,21.76
2022-08-07T15:07:54.720Z,21.59
2022-08-07T15:10:29.663Z,21.47
2022-08-07T15:13:01.540Z,21.35
2022-08-07T15:15:37.803Z,21.25
2022-08-07T15:18:14.489Z,21.21
2022-08-07T15:20:59.102Z,21.97
2022-08-07T15:25:02.815Z,22.60
2022-08-07T15:26:28.635Z,22.74
2022-08-07T15:30:02.333Z,22.69
2022-08-07T15:31:57.597Z,22.51
2022-08-07T15:34:26.249Z,22.29
2022-08-07T15:37:02.987Z,22.16
2022-08-07T15:39:56.553Z,22.08
2022-08-07T15:48:33.483Z,21.81
2022-08-07T15:51:09.212Z,21.71
2022-08-07T15:53:52.636Z,21.57
2022-08-07T15:56:40.625Z,21.42
2022-08-07T15:59:20.007Z,21.29
2022-08-07T16:02:07.299Z,21.22
2022-08-07T16:04:36.268Z,21.92
2022-08-07T16:08:28.587Z,22.55
2022-08-07T16:10:05.932Z,22.63
2022-08-07T16:13:05.644Z,22.42
2022-08-07T16:16:06.343Z,22.10
2022-08-07T16:18:49.379Z,21.83
2022-08-07T16:22:03.517Z,21.60
2022-08-07T16:24:34.409Z,21.39
2022-08-07T16:27:40.424Z,21.20
2022-08-07T16:30:31.763Z,21.05
2022-08-07T16:34:02.720Z,20.95
2022-08-07T16:38:09.518Z,22.14
2022-08-07T16:41:07.409Z,22.29
2022-08-07T16:44:05.814Z,22.06
2022-08-07T16:47:28.875Z,21.79
2022-08-07T16:50:36.858Z,21.49
2022-08-07T16:54:01.412Z,21.22
2022-08-07T16:57:01.707Z,21.00
2022-08-07T16:59:46.611Z,20.89
2022-08-07T17:03:06.004Z,21.65
2022-08-07T17:06:29.001Z,22.16
2022-08-07T17:09:09.442Z,22.01
2022-08-07T17:12:04.815Z,21.72
2022-08-07T17:14:42.679Z,21.43
2022-08-07T17:17:46.210Z,21.21
2022-08-07T17:20:37.793Z,20.99
2022-08-07T17:23:35.635Z,20.85
2022-08-07T17:26:24.292Z,21.61
2022-08-07T17:28:59.366Z,22.05
2022-08-07T17:31:44.259Z,21.94
2022-08-07T17:35:08.872Z,21.67
2022-08-07T17:38:09.652Z,21.38
2022-08-07T17:40:36.677Z,21.09
2022-08-07T17:43:18.300Z,20.88
2022-08-07T17:45:56.769Z,20.73
2022-08-07T17:48:31.107Z,21.30
2022-08-07T17:51:23.157Z,21.86
2022-08-07T17:54:01.272Z,21.86
2022-08-07T17:56:31.838Z,21.62
2022-08-07T17:59:09.129Z,21.35
2022-08-07T18:01:39.984Z,21.08
2022-08-07T18:04:31.147Z,20.86
2022-08-07T18:07:20.457Z,20.68
2022-08-07T18:10:09.942Z,21.37
2022-08-07T18:12:59.980Z,21.82
2022-08-07T18:15:35.723Z,21.73
2022-08-07T18:18:44.761Z,21.47
2022-08-07T18:21:37.112Z,21.16
2022-08-07T18:24:07.019Z,20.88
2022-08-07T18:27:09.383Z,20.64
2022-08-07T18:30:05.470Z,20.48
2022-08-07T18:33:24.887Z,21.26
2022-08-07T18:36:12.733Z,21.67
2022-08-07T18:38:55.039Z,21.50
2022-08-07T18:41:53.850Z,21.21
2022-08-07T18:45:44.923Z,20.91
2022-08-07T18:49:23.802Z,20.54
2022-08-07T18:52:33.709Z,20.38
2022-08-07T18:54:56.751Z,21.24
2022-08-07T18:57:40.544Z,21.54
2022-08-07T19:00:32.907Z,21.38
2022-08-07T19:03:15.953Z,21.11
2022-08-07T19:06:04.998Z,20.86
2022-08-07T19:09:55.389Z,20.61
2022-08-07T19:12:13.307Z,20.48
2022-08-07T19:16:03.406Z,21.22
2022-08-07T19:18:34.801Z,21.59
2022-08-07T19:21:44.088Z,21.38
2022-08-07T19:24:10.365Z,21.05
2022-08-07T19:27:16.790Z,20.78
2022-08-07T19:30:57.504Z,20.51
2022-08-07T19:32:26.478Z,20.34
2022-08-07T19:35:00.587Z,20.98
2022-08-07T19:37:57.238Z,21.49
2022-08-07T19:40:31.697Z,21.46
2022-08-07T19:43:21.887Z,21.21
2022-08-07T19:46:10.668Z,20.89
2022-08-07T19:49:10.634Z,20.63
2022-08-07T19:52:00.572Z,20.42
2022-08-07T19:54:44.877Z,21.07
2022-08-07T19:58:02.405Z,21.48
2022-08-07T20:00:31.309Z,21.33
2022-08-07T20:03:35.134Z,21.06
2022-08-07T20:06:03.176Z,20.74
2022-08-07T20:08:55.904Z,20.49
2022-08-07T20:12:21.966Z,20.32
2022-08-07T20:14:36.659Z,21.04
2022-08-07T20:17:21.538Z,21.39
2022-08-07T20:20:00.878Z,21.28
2022-08-07T20:22:34.092Z,21.03
2022-08-07T20:25:12.860Z,20.74
2022-08-07T20:27:57.950Z,20.48
2022-08-07T20:30:46.681Z,20.28
2022-08-07T20:33:36.416Z,20.85
2022-08-07T20:36:04.580Z,21.34
2022-08-07T20:38:59.374Z,21.29
2022-08-07T20:41:40.705Z,21.03
2022-08-07T20:44:12.516Z,20.79
2022-08-07T20:46:48.210Z,20.55
2022-08-07T20:49:59.717Z,20.35
2022-08-07T20:52:51.848Z,20.99
2022-08-07T20:55:26.391Z,21.38
2022-08-07T20:58:03.519Z,21.27
2022-08-07T21:00:49.140Z,21.01
2022-08-07T21:03:25.541Z,20.74
2022-08-07T21:06:26.120Z,20.46
2022-08-07T21:09:14.084Z,20.26
2022-08-07T21:11:51.849Z,20.92
2022-08-07T21:14:34.724Z,21.34
2022-08-07T21:18:06.117Z,21.28
2022-08-07T21:20:18.677Z,20.94
2022-08-07T21:22:54.967Z,20.62
2022-08-07T21:25:59.068Z,20.35
2022-08-07T21:29:04.627Z,20.14
2022-08-07T21:32:47.734Z,20.86
2022-08-07T21:34:58.458Z,21.16
2022-08-07T21:37:58.893Z,20.95
2022-08-07T21:41:00.027Z,20.57
2022-08-07T21:43:36.747Z,20.27
2022-08-07T21:46:32.102Z,20.01
2022-08-07T21:50:01.853Z,20.55
2022-08-07T21:53:17.170Z,20.91
2022-08-07T21:55:58.927Z,20.65
2022-08-07T21:58:37.723Z,20.31
2022-08-07T22:02:04.439Z,19.95
2022-08-07T22:04:37.555Z,19.68
2022-08-07T22:07:57.967Z,20.30
2022-08-07T22:11:15.904Z,20.61
2022-08-07T22:14:01.112Z,20.37
2022-08-07T22:17:15.171Z,20.00
2022-08-07T22:20:53.375Z,19.60
2022-08-07T22:23:46.328Z,19.36
2022-08-07T22:26:53.065Z,20.03
2022-08-07T22:29:47.521Z,20.32
2022-08-07T22:33:05.906Z,20.10
2022-08-07T22:36:02.018Z,19.72
2022-08-07T22:38:51.934Z,19.37
2022-08-07T22:42:03.598Z,19.12
2022-08-07T22:46:21.406Z,19.84
2022-08-07T22:49:06.604Z,20.06
2022-08-07T22:52:19.605Z,19.76
2022-08-07T22:55:38.829Z,19.36
2022-08-07T22:58:45.107Z,19.03
2022-08-07T23:01:49.812Z,18.81
2022-08-07T23:04:58.452Z,19.57
2022-08-07T23:08:45.247Z,19.80
2022-08-07T23:11:48.627Z,19.50
2022-08-07T23:14:54.259Z,19.14
2022-08-07T23:18:13.488Z,18.78
2022-08-07T23:21:08.659Z,18.59
2022-08-07T23:24:11.868Z,19.38
2022-08-07T23:27:33.856Z,19.61
2022-08-07T23:30:36.915Z,19.34
2022-08-07T23:34:36.602Z,18.97
2022-08-07T23:36:29.125Z,18.62
2022-08-07T23:39:21.961Z,18.39
2022-08-07T23:43:16.751Z,19.08
2022-08-07T23:47:20.800Z,19.48
2022-08-07T23:52:58.956Z,19.15
2022-08-07T23:55:53.267Z,18.67
2022-08-07T23:58:35.096Z,18.48
